Spokane, WA

4:26 AM PST on December 26, 2014 (GMT -0800)
Deer Park | Change Station
CLOSE
Current Station
Airport
Location: Deer Park,
Elevation: 2205 ft
Nearby Weather Stations

Elev 2205 ft 47.97 °N, 117.42 °W | Updated 33 minutes ago

Clear
Clear
25 °F
Feels Like 21 °F
N
4
Wind Variable Wind from East

Today
High -- | Low -- °F
--% Chance of Precip.
Yesterday
High -- | Low -- °F
Precip. -- in
7:38 AM 4:04 PM
Waxing Crescent, 25% visible
Pressure 30.23 in
Visibility 0.2 miles
Clouds
Windchill 21 °F
Dew Point 24 °F
Humidity 96%
Rainfall 0.00 in
Snow Depth Not available.
UV Not available.
Pollen .10 out of 12
Air Quality Not available.
Flu Activity Not available.
METAR KDEW 261153Z AUTO 08003KT 1/4SM FZFG VV002 M04/M04 A3015 RMK AO2 SLP236 I1001 I6002 T10391044 11022 21061 51014

More Conditions Fewer Conditions

Pressure 30.23 in
Visibility 0.2 miles
Clouds
Windchill 21 °F
Dew Point 24 °F
Humidity 96%
Rainfall 0.00 in
Snow Depth Not available.
UV Not available.
Pollen .10 out of 12
Air Quality Not available.
Flu Activity Not available.
METAR KDEW 261153Z AUTO 08003KT 1/4SM FZFG VV002 M04/M04 A3015 RMK AO2 SLP236 I1001 I6002 T10391044 11022 21061 51014

More Conditions Fewer Conditions

10-Day Weather Forecast

Almanac

Astronomy

Dec. 26, 2014 Rise Set
Actual Time
Civil Twilight
Nautical Twilight
Astronomical Twilight
Moon
Length of Visible Light
Length of Day
Tomorrow will be .
, % of the Moon is Illuminated

Today's Extremes

State Highs State Lows

Community

WunderPhotos

Upload Photos

1,780,585 photos uploaded!

WunderBlogs® & News

Nearby

Air Quality

  Air Quality AQ Index Pollutant
Not available.

Snow Depth

Station Depth Elevation

Earthquake Activity

City Distance Mag. Time & Date
Minimum magnitude displayed is 2.5.

Coastal Water Temperatures

Place Temperature

Nearby Weather Stations